Map

Track Data

SID SEASON NUMBER BASIN SUBBASIN NAME ISO_TIME NATURE LAT LON WMO_WIND WMO_PRES WMO_AGENCY TRACK_TYPE DIST2LAND LANDFALL IFLAG USA_AGENCY USA_ATCF_ID USA_LAT USA_LON USA_RECORD USA_STATUS USA_WIND USA_PRES USA_SSHS USA_R34_NE USA_R34_SE USA_R34_SW USA_R34_NW USA_R50_NE USA_R50_SE USA_R50_SW USA_R50_NW USA_R64_NE USA_R64_SE USA_R64_SW USA_R64_NW USA_POCI USA_ROCI USA_RMW USA_EYE TOKYO_LAT TOKYO_LON TOKYO_GRADE TOKYO_WIND TOKYO_PRES TOKYO_R50_DIR TOKYO_R50_LONG TOKYO_R50_SHORT TOKYO_R30_DIR TOKYO_R30_LONG TOKYO_R30_SHORT TOKYO_LAND CMA_LAT CMA_LON CMA_CAT CMA_WIND CMA_PRES HKO_LAT HKO_LON HKO_CAT HKO_WIND HKO_PRES NEWDELHI_LAT NEWDELHI_LON NEWDELHI_GRADE NEWDELHI_WIND NEWDELHI_PRES NEWDELHI_CI NEWDELHI_DP NEWDELHI_POCI REUNION_LAT REUNION_LON REUNION_TYPE REUNION_WIND REUNION_PRES REUNION_TNUM REUNION_CI REUNION_RMW REUNION_R34_NE REUNION_R34_SE REUNION_R34_SW REUNION_R34_NW REUNION_R50_NE REUNION_R50_SE REUNION_R50_SW REUNION_R50_NW REUNION_R64_NE REUNION_R64_SE REUNION_R64_SW REUNION_R64_NW BOM_LAT BOM_LON BOM_TYPE BOM_WIND BOM_PRES BOM_TNUM BOM_CI BOM_RMW BOM_R34_NE BOM_R34_SE BOM_R34_SW BOM_R34_NW BOM_R50_NE BOM_R50_SE BOM_R50_SW BOM_R50_NW BOM_R64_NE BOM_R64_SE BOM_R64_SW BOM_R64_NW BOM_ROCI BOM_POCI BOM_EYE BOM_POS_METHOD BOM_PRES_METHOD NADI_LAT NADI_LON NADI_CAT NADI_WIND NADI_PRES WELLINGTON_LAT WELLINGTON_LON WELLINGTON_WIND WELLINGTON_PRES DS824_LAT DS824_LON DS824_STAGE DS824_WIND DS824_PRES TD9636_LAT TD9636_LON TD9636_STAGE TD9636_WIND TD9636_PRES TD9635_LAT TD9635_LON TD9635_WIND TD9635_PRES TD9635_ROCI NEUMANN_LAT NEUMANN_LON NEUMANN_CLASS NEUMANN_WIND NEUMANN_PRES MLC_LAT MLC_LON MLC_CLASS MLC_WIND MLC_PRES USA_GUST BOM_GUST BOM_GUST_PER REUNION_GUST REUNION_GUST_PER USA_SEAHGT USA_SEARAD_NE USA_SEARAD_SE USA_SEARAD_SW USA_SEARAD_NW STORM_SPEED STORM_DIR
1951338N39307 1951 93 NA NA NOT_NAMED 1951-12-03 12:00:00 ET 39.0000 -53.0000 60 hurdat_atl main 845 845 O_____________ hurdat_atl AL121951 39.0000 -53.0000 EX 60 -4 20 96
1951338N39307 1951 93 NA NA NOT_NAMED 1951-12-03 15:00:00 ET 38.9004 -51.7390 main 864 864 P_____________ AL121951 38.9004 -51.7390 EX 62 -4 20 96
1951338N39307 1951 93 NA NA NOT_NAMED 1951-12-03 18:00:00 ET 38.8000 -50.5000 65 hurdat_atl main 894 894 O_____________ hurdat_atl AL121951 38.8000 -50.5000 EX 65 -4 19 96
1951338N39307 1951 93 NA NA NOT_NAMED 1951-12-03 21:00:00 ET 38.7060 -49.2933 main 933 933 P_____________ AL121951 38.7060 -49.2933 EX 65 -4 19 96
1951338N39307 1951 93 NA NA NOT_NAMED 1951-12-04 00:00:00 ET 38.6000 -48.1000 65 hurdat_atl main 981 981 O_____________ hurdat_atl AL121951 38.6000 -48.1000 EX 65 -4 20 97
1951338N39307 1951 93 NA NA NOT_NAMED 1951-12-04 03:00:00 ET 38.4585 -46.8097 main 1040 1040 P_____________ AL121951 38.4585 -46.8097 EX 65 -4 19 99
1951338N39307 1951 93 NA NA NOT_NAMED 1951-12-04 06:00:00 ET 38.3000 -45.7000 65 hurdat_atl main 1107 1107 O_____________ hurdat_atl AL121951 38.3000 -45.7000 EX 65 -4 15 102
1951338N39307 1951 93 NA NA NOT_NAMED 1951-12-04 09:00:00 ET 38.1486 -44.9279 main 1162 1162 P_____________ AL121951 38.1486 -44.9279 EX 65 -4 10 108
1951338N39307 1951 93 NA NA NOT_NAMED 1951-12-04 12:00:00 ET 38.0000 -44.5000 65 hurdat_atl main 1191 1191 O_____________ hurdat_atl AL121951 38.0000 -44.5000 EX 65 -4 6 123
1951338N39307 1951 93 NA NA NOT_NAMED 1951-12-04 15:00:00 ET 37.8419 -44.3228 main 1219 1219 P_____________ AL121951 37.8419 -44.3228 EX 65 -4 3 166
1951338N39307 1951 93 NA NA NOT_NAMED 1951-12-04 18:00:00 ET 37.7000 -44.4000 65 hurdat_atl main 1224 1219 O_____________ hurdat_atl AL121951 37.7000 -44.4000 EX 65 -4 3 222
1951338N39307 1951 93 NA NA NOT_NAMED 1951-12-04 21:00:00 ET 37.5926 -44.6051 main 1223 1219 P_____________ AL121951 37.5926 -44.6051 EX 65 -4 4 243
1951338N39307 1951 93 NA NA NOT_NAMED 1951-12-05 00:00:00 ET 37.5000 -44.9000 65 hurdat_atl main 1219 1214 O_____________ hurdat_atl AL121951 37.5000 -44.9000 EX 65 -4 5 247
1951338N39307 1951 93 NA NA NOT_NAMED 1951-12-05 03:00:00 ET 37.4074 -45.1423 main 1220 1211 P_____________ AL121951 37.4074 -45.1423 EX 65 -4 4 243
1951338N39307 1951 93 NA NA NOT_NAMED 1951-12-05 06:00:00 ET 37.3000 -45.4000 65 hurdat_atl main 1216 1212 O_____________ hurdat_atl AL121951 37.3000 -45.4000 EX 65 -4 5 240
1951338N39307 1951 93 NA NA NOT_NAMED 1951-12-05 09:00:00 ET 37.1573 -45.6774 main 1213 1213 P_____________ AL121951 37.1573 -45.6774 EX 65 -4 6 238
1951338N39307 1951 93 NA NA NOT_NAMED 1951-12-05 12:00:00 ET 37.0000 -46.0000 65 hurdat_atl main 1221 1215 O_____________ hurdat_atl AL121951 37.0000 -46.0000 EX 65 -4 6 241
1951338N39307 1951 93 NA NA NOT_NAMED 1951-12-05 15:00:00 ET 36.8499 -46.3774 main 1225 1218 P_____________ AL121951 36.8499 -46.3774 EX 62 -4 7 245
1951338N39307 1951 93 NA NA NOT_NAMED 1951-12-05 18:00:00 ET 36.7000 -46.8000 60 hurdat_atl main 1221 1214 O_____________ hurdat_atl AL121951 36.7000 -46.8000 EX 60 -4 8 248
1951338N39307 1951 93 NA NA NOT_NAMED 1951-12-05 21:00:00 ET 36.5576 -47.2573 main 1214 1214 P_____________ AL121951 36.5576 -47.2573 EX 60 -4 8 247
1951338N39307 1951 93 NA NA NOT_NAMED 1951-12-06 00:00:00 ET 36.4000 -47.7000 60 hurdat_atl main 1222 1219 O_____________ hurdat_atl AL121951 36.4000 -47.7000 EX 60 -4 8 243
1951338N39307 1951 93 NA NA NOT_NAMED 1951-12-06 03:00:00 ET 36.2150 -48.1026 main 1231 1228 P_____________ AL121951 36.2150 -48.1026 EX 60 -4 7 235
1951338N39307 1951 93 NA NA NOT_NAMED 1951-12-06 06:00:00 ET 36.0000 -48.4000 60 hurdat_atl main 1244 1244 O_____________ hurdat_atl AL121951 36.0000 -48.4000 EX 60 -4 6 221
1951338N39307 1951 93 NA NA NOT_NAMED 1951-12-06 09:00:00 ET 35.7497 -48.5977 main 1271 1271 P_____________ AL121951 35.7497 -48.5977 EX 60 -4 5 198
1951338N39307 1951 93 NA NA NOT_NAMED 1951-12-06 12:00:00 ET 35.5000 -48.6000 60 hurdat_atl main 1292 1292 O_____________ hurdat_atl AL121951 35.5000 -48.6000 EX 60 -4 5 160
1951338N39307 1951 93 NA NA NOT_NAMED 1951-12-06 15:00:00 ET 35.2849 -48.3898 main 1319 1319 P_____________ AL121951 35.2849 -48.3898 EX 60 -4 6 129
1951338N39307 1951 93 NA NA NOT_NAMED 1951-12-06 18:00:00 ET 35.1000 -48.0000 60 hurdat_atl main 1350 1350 O_____________ hurdat_atl AL121951 35.1000 -48.0000 EX 60 -4 8 116
1951338N39307 1951 93 NA NA NOT_NAMED 1951-12-06 21:00:00 ET 34.9354 -47.4999 main 1386 1386 P_____________ AL121951 34.9354 -47.4999 EX 60 -4 9 110
1951338N39307 1951 93 NA NA NOT_NAMED 1951-12-07 00:00:00 ET 34.8000 -47.0000 60 hurdat_atl main 1411 1411 O_____________ hurdat_atl AL121951 34.8000 -47.0000 EX 60 -4 7 110
1951338N39307 1951 93 NA NA NOT_NAMED 1951-12-07 03:00:00 ET 34.6847 -46.6552 main 1431 1431 P_____________ AL121951 34.6847 -46.6552 EX 60 -4 5 112
1951338N39307 1951 93 NA NA NOT_NAMED 1951-12-07 06:00:00 TS 34.6000 -46.4000 60 hurdat_atl main 1451 1451 O_____________ hurdat_atl AL121951 34.6000 -46.4000 TS 60 0 4 109
1951338N39307 1951 93 NA NA NOT_NAMED 1951-12-07 09:00:00 TS 34.5425 -46.1401 main 1471 1471 P_____________ AL121951 34.5425 -46.1401 TS 62 0 3 107
1951338N39307 1951 93 NA NA NOT_NAMED 1951-12-07 12:00:00 TS 34.5000 -46.0000 65 hurdat_atl main 1475 1471 O_____________ hurdat_atl AL121951 34.5000 -46.0000 HU 65 1 1 136
1951338N39307 1951 93 NA NA NOT_NAMED 1951-12-07 15:00:00 TS 34.4725 -46.0625 main 1471 1471 P_____________ AL121951 34.4725 -46.0625 HU 67 1 2 238
1951338N39307 1951 93 NA NA NOT_NAMED 1951-12-07 18:00:00 TS 34.4000 -46.2000 70 hurdat_atl main 1478 1478 O_____________ hurdat_atl AL121951 34.4000 -46.2000 HU 70 1 3 216
1951338N39307 1951 93 NA NA NOT_NAMED 1951-12-07 21:00:00 TS 34.2450 -46.2575 main 1496 1496 P_____________ AL121951 34.2450 -46.2575 HU 70 1 4 191
1951338N39307 1951 93 NA NA NOT_NAMED 1951-12-08 00:00:00 TS 34.0000 -46.3000 70 hurdat_atl main 1517 1517 O_____________ hurdat_atl AL121951 34.0000 -46.3000 HU 70 1 6 189
1951338N39307 1951 93 NA NA NOT_NAMED 1951-12-08 03:00:00 TS 33.6650 -46.3652 main 1545 1545 P_____________ AL121951 33.6650 -46.3652 HU 67 1 7 186
1951338N39307 1951 93 NA NA NOT_NAMED 1951-12-08 06:00:00 TS 33.3000 -46.4000 65 hurdat_atl main 1587 1587 O_____________ hurdat_atl AL121951 33.3000 -46.4000 HU 65 1 7 183
1951338N39307 1951 93 NA NA NOT_NAMED 1951-12-08 09:00:00 TS 32.9549 -46.4025 main 1619 1619 P_____________ AL121951 32.9549 -46.4025 HU 62 0 6 172
1951338N39307 1951 93 NA NA NOT_NAMED 1951-12-08 12:00:00 TS 32.7000 -46.3000 60 hurdat_atl main 1653 1653 O_____________ hurdat_atl AL121951 32.7000 -46.3000 TS 60 0 4 140
1951338N39307 1951 93 NA NA NOT_NAMED 1951-12-08 15:00:00 TS 32.6124 -46.0601 main 1670 1670 P_____________ AL121951 32.6124 -46.0601 TS 57 0 5 101
1951338N39307 1951 93 NA NA NOT_NAMED 1951-12-08 18:00:00 TS 32.6000 -45.7000 55 hurdat_atl main 1682 1682 O_____________ hurdat_atl AL121951 32.6000 -45.7000 TS 55 0 7 96
1951338N39307 1951 93 NA NA NOT_NAMED 1951-12-08 21:00:00 TS 32.5424 -45.2874 main 1706 1706 P_____________ AL121951 32.5424 -45.2874 TS 55 0 8 98
1951338N39307 1951 93 NA NA NOT_NAMED 1951-12-09 00:00:00 TS 32.5000 -44.8000 55 hurdat_atl main 1723 1723 O_____________ hurdat_atl AL121951 32.5000 -44.8000 TS 55 0 8 94
1951338N39307 1951 93 NA NA NOT_NAMED 1951-12-09 03:00:00 TS 32.4771 -44.2873 main 1741 1741 P_____________ AL121951 32.4771 -44.2873 TS 52 0 9 90
1951338N39307 1951 93 NA NA NOT_NAMED 1951-12-09 06:00:00 TS 32.5000 -43.7000 50 hurdat_atl main 1763 1763 O_____________ hurdat_atl AL121951 32.5000 -43.7000 TS 50 0 10 87
1951338N39307 1951 93 NA NA NOT_NAMED 1951-12-09 09:00:00 TS 32.5389 -43.0735 main 1787 1781 P_____________ AL121951 32.5389 -43.0735 TS 50 0 12 80
1951338N39307 1951 93 NA NA NOT_NAMED 1951-12-09 12:00:00 TS 32.7000 -42.3000 50 hurdat_atl main 1801 1800 O_____________ hurdat_atl AL121951 32.7000 -42.3000 TS 50 0 15 72
1951338N39307 1951 93 NA NA NOT_NAMED 1951-12-09 15:00:00 TS 33.0018 -41.3380 main 1817 1812 P_____________ AL121951 33.0018 -41.3380 TS 50 0 19 66
1951338N39307 1951 93 NA NA NOT_NAMED 1951-12-09 18:00:00 TS 33.5000 -40.2000 50 hurdat_atl main 1823 1818 O_____________ hurdat_atl AL121951 33.5000 -40.2000 TS 50 0 23 59
1951338N39307 1951 93 NA NA NOT_NAMED 1951-12-09 21:00:00 TS 34.1969 -38.9526 main 1822 1820 P_____________ AL121951 34.1969 -38.9526 TS 50 0 26 55
1951338N39307 1951 93 NA NA NOT_NAMED 1951-12-10 00:00:00 TS 35.0000 -37.6000 50 hurdat_atl main 1831 1831 O_____________ hurdat_atl AL121951 35.0000 -37.6000 TS 50 0 27 55
1951338N39307 1951 93 NA NA NOT_NAMED 1951-12-10 03:00:00 TS 35.7639 -36.2136 main 1851 1851 P_____________ AL121951 35.7639 -36.2136 TS 52 0 27 57
1951338N39307 1951 93 NA NA NOT_NAMED 1951-12-10 06:00:00 TS 36.5000 -34.8000 55 hurdat_atl main 1885 1835 O_____________ hurdat_atl AL121951 36.5000 -34.8000 TS 55 0 27 58
1951338N39307 1951 93 NA NA NOT_NAMED 1951-12-10 09:00:00 TS 37.1877 -33.3396 main 1828 1764 P_____________ AL121951 37.1877 -33.3396 TS 55 0 26 60
1951338N39307 1951 93 NA NA NOT_NAMED 1951-12-10 12:00:00 TS 37.8000 -32.0000 55 hurdat_atl main 1762 1721 O_____________ hurdat_atl AL121951 37.8000 -32.0000 TS 55 0 23 58
1951338N39307 1951 93 NA NA NOT_NAMED 1951-12-10 15:00:00 TS 38.3811 -30.8794 main 1721 1687 P_____________ AL121951 38.3811 -30.8794 TS 55 0 19 57
1951338N39307 1951 93 NA NA NOT_NAMED 1951-12-10 18:00:00 TS 38.8000 -30.0000 55 hurdat_atl main 1687 1662 O_____________ hurdat_atl AL121951 38.8000 -30.0000 TS 55 0 13 64
1951338N39307 1951 93 NA NA NOT_NAMED 1951-12-10 21:00:00 TS 38.9736 -29.3303 main 1657 1625 P_____________ AL121951 38.9736 -29.3303 TS 52 0 10 78
1951338N39307 1951 93 NA NA NOT_NAMED 1951-12-11 00:00:00 TS 39.0000 -28.8000 50 hurdat_atl main 1625 1594 O_____________ hurdat_atl AL121951 39.0000 -28.8000 TS 50 0 8 88
1951338N39307 1951 93 NA NA NOT_NAMED 1951-12-11 03:00:00 TS 38.9995 -28.2493 main 1588 1558 P_____________ AL121951 38.9995 -28.2493 TS 47 0 9 90
1951338N39307 1951 93 NA NA NOT_NAMED 1951-12-11 06:00:00 ET 39.0000 -27.7000 45 hurdat_atl main 1558 1515 O_____________ hurdat_atl AL121951 39.0000 -27.7000 EX 45 -4 9 86
1951338N39307 1951 93 NA NA NOT_NAMED 1951-12-11 09:00:00 ET 39.0700 -27.0925 main 1515 1463 P_____________ AL121951 39.0700 -27.0925 EX 42 -4 10 78
1951338N39307 1951 93 NA NA NOT_NAMED 1951-12-11 12:00:00 ET 39.2000 -26.5000 40 hurdat_atl main 1463 1419 O_____________ hurdat_atl AL121951 39.2000 -26.5000 EX 40 -4 9 72
1951338N39307 1951 93 NA NA NOT_NAMED 1951-12-11 15:00:00 ET 39.3473 -25.9694 main 1419 1375 P_____________ AL121951 39.3473 -25.9694 EX 40 -4 9 63
1951338N39307 1951 93 NA NA NOT_NAMED 1951-12-11 18:00:00 ET 39.6000 -25.5000 40 hurdat_atl main 1375 1341 O_____________ hurdat_atl AL121951 39.6000 -25.5000 EX 40 -4 10 46
1951338N39307 1951 93 NA NA NOT_NAMED 1951-12-11 21:00:00 ET 40.0048 -25.0775 main 1341 1299 P_____________ AL121951 40.0048 -25.0775 EX 37 -4 11 34
1951338N39307 1951 93 NA NA NOT_NAMED 1951-12-12 00:00:00 ET 40.5000 -24.7000 35 hurdat_atl main 1299 1260 O_____________ hurdat_atl AL121951 40.5000 -24.7000 EX 35 -4 11 29
1951338N39307 1951 93 NA NA NOT_NAMED 1951-12-12 03:00:00 ET 41.0027 -24.3458 main 1252 1215 P_____________ AL121951 41.0027 -24.3458 EX 35 -4 11 28
1951338N39307 1951 93 NA NA NOT_NAMED 1951-12-12 06:00:00 ET 41.5000 -24.0000 35 hurdat_atl main 1215 O_____________ hurdat_atl AL121951 41.5000 -24.0000 EX 35 -4 11 28

About IBTrACS Database

This database is a web-friendly format of International Best Track Archive for Climate Stewardship (IBTrACS), a global best track data archive curated by NOAA dating back to 1842.

Updated: 2021-12-06